sensor_id;sensor_type;location;lat;lon;timestamp;P1;durP1;ratioP1;P2;durP2;ratioP2
77123;SDS011;66079;47.646;19.130;2023-04-16T00:00:42;12.10;;;10.07;;
77123;SDS011;66079;47.646;19.130;2023-04-16T00:03:44;13.13;;;8.75;;
77123;SDS011;66079;47.646;19.130;2023-04-16T00:06:48;12.47;;;8.87;;
77123;SDS011;66079;47.646;19.130;2023-04-16T00:09:50;13.17;;;8.93;;
77123;SDS011;66079;47.646;19.130;2023-04-16T00:12:53;14.52;;;9.75;;
77123;SDS011;66079;47.646;19.130;2023-04-16T00:15:55;13.15;;;8.70;;
77123;SDS011;66079;47.646;19.130;2023-04-16T00:18:58;13.05;;;9.52;;
77123;SDS011;66079;47.646;19.130;2023-04-16T00:22:00;11.73;;;8.83;;
77123;SDS011;66079;47.646;19.130;2023-04-16T00:25:03;12.37;;;8.90;;
77123;SDS011;66079;47.646;19.130;2023-04-16T00:28:06;12.13;;;8.52;;
77123;SDS011;66079;47.646;19.130;2023-04-16T00:31:11;12.52;;;8.90;;
77123;SDS011;66079;47.646;19.130;2023-04-16T00:34:13;11.57;;;8.60;;
77123;SDS011;66079;47.646;19.130;2023-04-16T00:37:16;12.43;;;8.57;;
77123;SDS011;66079;47.646;19.130;2023-04-16T00:40:18;11.17;;;7.97;;
77123;SDS011;66079;47.646;19.130;2023-04-16T00:43:21;11.93;;;8.52;;
77123;SDS011;66079;47.646;19.130;2023-04-16T00:46:25;13.63;;;8.23;;
77123;SDS011;66079;47.646;19.130;2023-04-16T00:49:29;10.43;;;8.10;;
77123;SDS011;66079;47.646;19.130;2023-04-16T00:52:34;11.00;;;8.13;;
77123;SDS011;66079;47.646;19.130;2023-04-16T00:55:36;10.10;;;7.83;;
77123;SDS011;66079;47.646;19.130;2023-04-16T00:58:40;10.75;;;7.82;;
77123;SDS011;66079;47.646;19.130;2023-04-16T01:01:43;11.90;;;8.60;;
77123;SDS011;66079;47.646;19.130;2023-04-16T01:04:45;11.77;;;8.60;;
77123;SDS011;66079;47.646;19.130;2023-04-16T01:07:49;13.23;;;9.20;;
77123;SDS011;66079;47.646;19.130;2023-04-16T01:10:52;12.70;;;8.83;;
77123;SDS011;66079;47.646;19.130;2023-04-16T01:13:54;13.10;;;9.32;;
77123;SDS011;66079;47.646;19.130;2023-04-16T01:16:57;13.20;;;9.07;;
77123;SDS011;66079;47.646;19.130;2023-04-16T01:19:59;12.82;;;8.98;;
77123;SDS011;66079;47.646;19.130;2023-04-16T01:23:02;12.03;;;8.77;;
77123;SDS011;66079;47.646;19.130;2023-04-16T01:26:05;13.97;;;10.07;;
77123;SDS011;66079;47.646;19.130;2023-04-16T01:29:07;13.75;;;9.18;;
77123;SDS011;66079;47.646;19.130;2023-04-16T01:32:10;13.30;;;9.57;;
77123;SDS011;66079;47.646;19.130;2023-04-16T01:35:15;12.98;;;8.80;;
77123;SDS011;66079;47.646;19.130;2023-04-16T01:38:19;14.57;;;9.80;;
77123;SDS011;66079;47.646;19.130;2023-04-16T01:41:22;12.83;;;9.10;;
77123;SDS011;66079;47.646;19.130;2023-04-16T01:44:24;12.98;;;9.02;;
77123;SDS011;66079;47.646;19.130;2023-04-16T01:47:27;13.30;;;9.05;;
77123;SDS011;66079;47.646;19.130;2023-04-16T01:50:31;11.32;;;8.35;;
77123;SDS011;66079;47.646;19.130;2023-04-16T01:53:34;12.33;;;9.33;;
77123;SDS011;66079;47.646;19.130;2023-04-16T01:56:38;11.10;;;8.43;;
77123;SDS011;66079;47.646;19.130;2023-04-16T01:59:41;11.70;;;8.82;;
77123;SDS011;66079;47.646;19.130;2023-04-16T02:02:43;12.52;;;8.55;;
77123;SDS011;66079;47.646;19.130;2023-04-16T02:05:50;11.95;;;8.63;;
77123;SDS011;66079;47.646;19.130;2023-04-16T02:08:53;11.00;;;8.07;;
77123;SDS011;66079;47.646;19.130;2023-04-16T02:11:56;11.37;;;8.30;;
77123;SDS011;66079;47.646;19.130;2023-04-16T02:14:58;12.15;;;8.38;;
77123;SDS011;66079;47.646;19.130;2023-04-16T02:18:03;10.75;;;8.27;;
77123;SDS011;66079;47.646;19.130;2023-04-16T02:21:06;11.00;;;7.97;;
77123;SDS011;66079;47.646;19.130;2023-04-16T02:24:09;12.00;;;9.07;;
77123;SDS011;66079;47.646;19.130;2023-04-16T02:27:11;13.03;;;8.70;;
77123;SDS011;66079;47.646;19.130;2023-04-16T02:30:14;11.43;;;7.97;;
77123;SDS011;66079;47.646;19.130;2023-04-16T02:33:17;13.07;;;8.55;;
77123;SDS011;66079;47.646;19.130;2023-04-16T02:36:30;11.13;;;8.15;;
77123;SDS011;66079;47.646;19.130;2023-04-16T02:39:33;11.93;;;8.27;;
77123;SDS011;66079;47.646;19.130;2023-04-16T02:42:36;11.80;;;8.70;;
77123;SDS011;66079;47.646;19.130;2023-04-16T02:45:39;13.40;;;8.43;;
77123;SDS011;66079;47.646;19.130;2023-04-16T02:48:42;11.05;;;8.05;;
77123;SDS011;66079;47.646;19.130;2023-04-16T02:51:45;14.15;;;8.43;;
77123;SDS011;66079;47.646;19.130;2023-04-16T02:54:47;10.80;;;8.17;;
77123;SDS011;66079;47.646;19.130;2023-04-16T02:57:50;10.80;;;7.97;;
77123;SDS011;66079;47.646;19.130;2023-04-16T03:00:54;11.15;;;8.32;;
77123;SDS011;66079;47.646;19.130;2023-04-16T03:03:56;9.65;;;7.47;;
77123;SDS011;66079;47.646;19.130;2023-04-16T03:06:59;12.25;;;8.15;;
77123;SDS011;66079;47.646;19.130;2023-04-16T03:10:02;12.83;;;8.40;;
77123;SDS011;66079;47.646;19.130;2023-04-16T03:13:04;11.10;;;7.60;;
77123;SDS011;66079;47.646;19.130;2023-04-16T03:16:07;10.82;;;7.35;;
77123;SDS011;66079;47.646;19.130;2023-04-16T03:19:10;14.15;;;8.07;;
77123;SDS011;66079;47.646;19.130;2023-04-16T03:22:13;11.57;;;7.53;;
77123;SDS011;66079;47.646;19.130;2023-04-16T03:25:16;10.10;;;7.53;;
77123;SDS011;66079;47.646;19.130;2023-04-16T03:28:19;12.73;;;7.83;;
77123;SDS011;66079;47.646;19.130;2023-04-16T03:31:24;10.98;;;7.57;;
77123;SDS011;66079;47.646;19.130;2023-04-16T03:34:28;10.80;;;6.90;;
77123;SDS011;66079;47.646;19.130;2023-04-16T03:37:30;10.43;;;7.50;;
77123;SDS011;66079;47.646;19.130;2023-04-16T03:40:33;10.43;;;7.27;;
77123;SDS011;66079;47.646;19.130;2023-04-16T03:43:36;10.70;;;6.77;;
77123;SDS011;66079;47.646;19.130;2023-04-16T03:46:39;10.43;;;6.78;;
77123;SDS011;66079;47.646;19.130;2023-04-16T03:49:41;13.43;;;7.00;;
77123;SDS011;66079;47.646;19.130;2023-04-16T03:52:44;8.90;;;6.83;;
77123;SDS011;66079;47.646;19.130;2023-04-16T03:55:49;9.23;;;6.20;;
77123;SDS011;66079;47.646;19.130;2023-04-16T03:58:53;10.82;;;6.38;;
77123;SDS011;66079;47.646;19.130;2023-04-16T04:01:56;8.98;;;6.35;;
77123;SDS011;66079;47.646;19.130;2023-04-16T04:05:00;8.85;;;6.45;;
77123;SDS011;66079;47.646;19.130;2023-04-16T04:08:03;9.47;;;6.17;;
77123;SDS011;66079;47.646;19.130;2023-04-16T04:11:07;8.65;;;5.82;;
77123;SDS011;66079;47.646;19.130;2023-04-16T04:14:10;10.85;;;6.30;;
77123;SDS011;66079;47.646;19.130;2023-04-16T04:17:13;9.45;;;6.28;;
77123;SDS011;66079;47.646;19.130;2023-04-16T04:20:15;8.27;;;6.22;;
77123;SDS011;66079;47.646;19.130;2023-04-16T04:23:20;10.83;;;6.07;;
77123;SDS011;66079;47.646;19.130;2023-04-16T04:26:24;7.68;;;5.63;;
77123;SDS011;66079;47.646;19.130;2023-04-16T04:29:27;6.90;;;5.25;;
77123;SDS011;66079;47.646;19.130;2023-04-16T04:32:29;8.35;;;5.85;;
77123;SDS011;66079;47.646;19.130;2023-04-16T04:35:32;8.98;;;6.20;;
77123;SDS011;66079;47.646;19.130;2023-04-16T04:38:35;9.10;;;5.60;;
77123;SDS011;66079;47.646;19.130;2023-04-16T04:41:38;8.50;;;5.60;;
77123;SDS011;66079;47.646;19.130;2023-04-16T04:44:41;9.63;;;5.82;;
77123;SDS011;66079;47.646;19.130;2023-04-16T04:47:44;8.25;;;5.82;;
77123;SDS011;66079;47.646;19.130;2023-04-16T04:50:47;9.33;;;5.57;;
77123;SDS011;66079;47.646;19.130;2023-04-16T04:53:49;9.13;;;6.20;;
77123;SDS011;66079;47.646;19.130;2023-04-16T04:56:51;8.50;;;6.43;;
77123;SDS011;66079;47.646;19.130;2023-04-16T04:59:54;8.82;;;6.38;;
77123;SDS011;66079;47.646;19.130;2023-04-16T05:03:00;7.47;;;5.75;;
77123;SDS011;66079;47.646;19.130;2023-04-16T05:06:04;8.40;;;6.03;;
77123;SDS011;66079;47.646;19.130;2023-04-16T05:09:06;7.63;;;5.55;;
77123;SDS011;66079;47.646;19.130;2023-04-16T05:12:13;8.55;;;6.00;;
77123;SDS011;66079;47.646;19.130;2023-04-16T05:15:15;8.05;;;5.80;;
77123;SDS011;66079;47.646;19.130;2023-04-16T05:18:18;9.00;;;6.23;;
77123;SDS011;66079;47.646;19.130;2023-04-16T05:21:21;7.27;;;5.87;;
77123;SDS011;66079;47.646;19.130;2023-04-16T05:24:24;8.70;;;6.20;;
77123;SDS011;66079;47.646;19.130;2023-04-16T05:27:26;8.95;;;5.93;;
77123;SDS011;66079;47.646;19.130;2023-04-16T05:30:29;9.02;;;5.93;;
77123;SDS011;66079;47.646;19.130;2023-04-16T05:33:31;7.73;;;5.43;;
77123;SDS011;66079;47.646;19.130;2023-04-16T05:36:34;7.73;;;5.57;;
77123;SDS011;66079;47.646;19.130;2023-04-16T05:39:37;7.57;;;5.90;;
77123;SDS011;66079;47.646;19.130;2023-04-16T05:42:39;6.97;;;5.70;;
77123;SDS011;66079;47.646;19.130;2023-04-16T05:45:42;7.18;;;5.90;;
77123;SDS011;66079;47.646;19.130;2023-04-16T05:48:45;8.77;;;5.70;;
77123;SDS011;66079;47.646;19.130;2023-04-16T05:51:48;7.93;;;5.90;;
77123;SDS011;66079;47.646;19.130;2023-04-16T05:54:52;9.13;;;5.80;;
77123;SDS011;66079;47.646;19.130;2023-04-16T05:57:54;7.43;;;5.50;;
77123;SDS011;66079;47.646;19.130;2023-04-16T06:00:57;8.38;;;5.80;;
77123;SDS011;66079;47.646;19.130;2023-04-16T06:03:59;8.43;;;5.57;;
77123;SDS011;66079;47.646;19.130;2023-04-16T06:07:03;6.37;;;4.87;;
77123;SDS011;66079;47.646;19.130;2023-04-16T06:10:05;9.48;;;5.38;;
77123;SDS011;66079;47.646;19.130;2023-04-16T06:13:08;6.75;;;5.32;;
77123;SDS011;66079;47.646;19.130;2023-04-16T06:16:11;7.28;;;4.85;;
77123;SDS011;66079;47.646;19.130;2023-04-16T06:19:13;7.13;;;4.70;;
77123;SDS011;66079;47.646;19.130;2023-04-16T06:22:16;6.90;;;4.47;;
77123;SDS011;66079;47.646;19.130;2023-04-16T06:25:19;6.75;;;4.78;;
77123;SDS011;66079;47.646;19.130;2023-04-16T06:28:21;6.57;;;4.95;;
77123;SDS011;66079;47.646;19.130;2023-04-16T06:31:24;9.13;;;4.90;;
77123;SDS011;66079;47.646;19.130;2023-04-16T06:34:27;5.90;;;4.53;;
77123;SDS011;66079;47.646;19.130;2023-04-16T06:37:29;5.07;;;4.53;;
77123;SDS011;66079;47.646;19.130;2023-04-16T06:40:32;6.70;;;4.82;;
77123;SDS011;66079;47.646;19.130;2023-04-16T06:43:35;8.35;;;4.90;;
77123;SDS011;66079;47.646;19.130;2023-04-16T06:46:38;6.38;;;4.72;;
77123;SDS011;66079;47.646;19.130;2023-04-16T06:49:40;5.90;;;4.90;;
77123;SDS011;66079;47.646;19.130;2023-04-16T06:52:43;6.87;;;4.77;;
77123;SDS011;66079;47.646;19.130;2023-04-16T06:55:46;7.00;;;5.10;;
77123;SDS011;66079;47.646;19.130;2023-04-16T06:58:48;7.25;;;4.88;;
77123;SDS011;66079;47.646;19.130;2023-04-16T07:01:51;9.00;;;5.15;;
77123;SDS011;66079;47.646;19.130;2023-04-16T07:04:54;6.57;;;5.00;;
77123;SDS011;66079;47.646;19.130;2023-04-16T07:07:57;8.03;;;5.23;;
77123;SDS011;66079;47.646;19.130;2023-04-16T07:11:00;5.53;;;4.43;;
77123;SDS011;66079;47.646;19.130;2023-04-16T07:14:02;5.85;;;4.22;;
77123;SDS011;66079;47.646;19.130;2023-04-16T07:17:05;6.75;;;4.90;;
77123;SDS011;66079;47.646;19.130;2023-04-16T07:20:07;6.47;;;4.60;;
77123;SDS011;66079;47.646;19.130;2023-04-16T07:23:10;5.30;;;4.37;;
77123;SDS011;66079;47.646;19.130;2023-04-16T07:26:13;5.57;;;4.28;;
77123;SDS011;66079;47.646;19.130;2023-04-16T07:29:15;5.75;;;4.07;;
77123;SDS011;66079;47.646;19.130;2023-04-16T07:32:18;4.88;;;4.15;;
77123;SDS011;66079;47.646;19.130;2023-04-16T07:35:24;5.67;;;3.50;;
77123;SDS011;66079;47.646;19.130;2023-04-16T07:38:26;7.73;;;3.87;;
77123;SDS011;66079;47.646;19.130;2023-04-16T07:41:29;5.72;;;4.03;;
77123;SDS011;66079;47.646;19.130;2023-04-16T07:44:32;5.15;;;3.95;;
77123;SDS011;66079;47.646;19.130;2023-04-16T07:47:35;4.50;;;3.28;;
77123;SDS011;66079;47.646;19.130;2023-04-16T07:50:37;4.53;;;3.50;;
77123;SDS011;66079;47.646;19.130;2023-04-16T07:53:40;4.67;;;3.60;;
77123;SDS011;66079;47.646;19.130;2023-04-16T07:56:44;3.97;;;3.17;;
77123;SDS011;66079;47.646;19.130;2023-04-16T07:59:47;4.35;;;3.83;;
77123;SDS011;66079;47.646;19.130;2023-04-16T08:02:50;3.85;;;3.50;;
77123;SDS011;66079;47.646;19.130;2023-04-16T08:05:52;3.50;;;3.20;;
77123;SDS011;66079;47.646;19.130;2023-04-16T08:08:55;3.57;;;2.97;;
77123;SDS011;66079;47.646;19.130;2023-04-16T08:11:59;3.22;;;2.92;;
77123;SDS011;66079;47.646;19.130;2023-04-16T08:15:01;3.17;;;2.88;;
77123;SDS011;66079;47.646;19.130;2023-04-16T08:18:04;4.28;;;3.20;;
77123;SDS011;66079;47.646;19.130;2023-04-16T08:21:08;4.23;;;3.30;;
77123;SDS011;66079;47.646;19.130;2023-04-16T08:24:11;4.23;;;2.87;;
77123;SDS011;66079;47.646;19.130;2023-04-16T08:27:13;3.78;;;2.90;;
77123;SDS011;66079;47.646;19.130;2023-04-16T08:30:21;4.13;;;3.00;;
77123;SDS011;66079;47.646;19.130;2023-04-16T08:33:24;3.20;;;2.95;;
77123;SDS011;66079;47.646;19.130;2023-04-16T08:36:26;2.90;;;2.60;;
77123;SDS011;66079;47.646;19.130;2023-04-16T08:39:28;3.63;;;2.83;;
77123;SDS011;66079;47.646;19.130;2023-04-16T08:42:33;2.83;;;2.53;;
77123;SDS011;66079;47.646;19.130;2023-04-16T08:45:46;3.50;;;2.88;;
77123;SDS011;66079;47.646;19.130;2023-04-16T08:48:48;4.95;;;3.00;;
77123;SDS011;66079;47.646;19.130;2023-04-16T08:51:55;3.20;;;2.90;;
77123;SDS011;66079;47.646;19.130;2023-04-16T08:55:13;3.73;;;2.70;;
77123;SDS011;66079;47.646;19.130;2023-04-16T08:58:18;3.42;;;2.80;;
77123;SDS011;66079;47.646;19.130;2023-04-16T09:01:23;4.13;;;2.78;;
77123;SDS011;66079;47.646;19.130;2023-04-16T09:04:28;3.72;;;2.97;;
77123;SDS011;66079;47.646;19.130;2023-04-16T09:07:31;4.53;;;3.13;;
77123;SDS011;66079;47.646;19.130;2023-04-16T09:10:35;4.50;;;3.40;;
77123;SDS011;66079;47.646;19.130;2023-04-16T09:13:37;3.20;;;2.50;;
77123;SDS011;66079;47.646;19.130;2023-04-16T09:16:40;2.90;;;2.60;;
77123;SDS011;66079;47.646;19.130;2023-04-16T09:19:45;2.83;;;2.42;;
77123;SDS011;66079;47.646;19.130;2023-04-16T09:22:48;3.60;;;2.80;;
77123;SDS011;66079;47.646;19.130;2023-04-16T09:25:50;2.90;;;2.20;;
77123;SDS011;66079;47.646;19.130;2023-04-16T09:28:53;2.63;;;2.30;;
77123;SDS011;66079;47.646;19.130;2023-04-16T09:32:06;2.67;;;2.08;;
77123;SDS011;66079;47.646;19.130;2023-04-16T09:35:10;5.80;;;2.38;;
77123;SDS011;66079;47.646;19.130;2023-04-16T09:38:12;5.40;;;3.50;;
77123;SDS011;66079;47.646;19.130;2023-04-16T09:41:15;2.83;;;2.50;;
77123;SDS011;66079;47.646;19.130;2023-04-16T09:44:17;3.88;;;2.80;;
77123;SDS011;66079;47.646;19.130;2023-04-16T09:47:20;3.53;;;2.58;;
77123;SDS011;66079;47.646;19.130;2023-04-16T09:50:25;4.85;;;2.80;;
77123;SDS011;66079;47.646;19.130;2023-04-16T09:53:28;3.03;;;2.50;;
77123;SDS011;66079;47.646;19.130;2023-04-16T09:56:32;3.80;;;2.80;;
77123;SDS011;66079;47.646;19.130;2023-04-16T09:59:35;2.30;;;2.08;;
77123;SDS011;66079;47.646;19.130;2023-04-16T10:02:38;3.17;;;2.20;;
77123;SDS011;66079;47.646;19.130;2023-04-16T10:05:43;3.20;;;2.05;;
77123;SDS011;66079;47.646;19.130;2023-04-16T10:08:49;2.23;;;2.03;;
77123;SDS011;66079;47.646;19.130;2023-04-16T10:11:54;2.73;;;2.30;;
77123;SDS011;66079;47.646;19.130;2023-04-16T10:14:57;3.55;;;2.25;;
77123;SDS011;66079;47.646;19.130;2023-04-16T10:17:59;2.92;;;2.00;;
77123;SDS011;66079;47.646;19.130;2023-04-16T10:21:03;3.15;;;1.83;;
77123;SDS011;66079;47.646;19.130;2023-04-16T10:24:06;2.03;;;1.67;;
77123;SDS011;66079;47.646;19.130;2023-04-16T10:27:09;2.40;;;1.77;;
77123;SDS011;66079;47.646;19.130;2023-04-16T10:30:12;2.70;;;1.58;;
77123;SDS011;66079;47.646;19.130;2023-04-16T10:33:26;2.30;;;1.77;;
77123;SDS011;66079;47.646;19.130;2023-04-16T10:36:33;2.28;;;1.80;;
77123;SDS011;66079;47.646;19.130;2023-04-16T10:39:38;2.17;;;1.70;;
77123;SDS011;66079;47.646;19.130;2023-04-16T10:42:40;1.87;;;1.50;;
77123;SDS011;66079;47.646;19.130;2023-04-16T10:45:43;2.60;;;1.80;;
77123;SDS011;66079;47.646;19.130;2023-04-16T10:48:46;2.78;;;1.45;;
77123;SDS011;66079;47.646;19.130;2023-04-16T10:52:03;3.35;;;1.85;;
77123;SDS011;66079;47.646;19.130;2023-04-16T10:55:16;2.63;;;1.67;;
77123;SDS011;66079;47.646;19.130;2023-04-16T10:58:31;2.23;;;1.67;;
77123;SDS011;66079;47.646;19.130;2023-04-16T11:01:40;3.03;;;1.50;;
77123;SDS011;66079;47.646;19.130;2023-04-16T11:04:46;2.72;;;1.60;;
77123;SDS011;66079;47.646;19.130;2023-04-16T11:07:49;2.72;;;1.55;;
77123;SDS011;66079;47.646;19.130;2023-04-16T11:10:52;1.73;;;1.33;;
77123;SDS011;66079;47.646;19.130;2023-04-16T11:13:55;2.40;;;1.50;;
77123;SDS011;66079;47.646;19.130;2023-04-16T11:17:01;1.83;;;1.58;;
77123;SDS011;66079;47.646;19.130;2023-04-16T11:20:08;1.60;;;1.40;;
77123;SDS011;66079;47.646;19.130;2023-04-16T11:23:21;2.42;;;1.50;;
77123;SDS011;66079;47.646;19.130;2023-04-16T11:26:26;1.83;;;1.57;;
77123;SDS011;66079;47.646;19.130;2023-04-16T11:29:29;1.97;;;1.50;;
77123;SDS011;66079;47.646;19.130;2023-04-16T11:32:33;1.85;;;1.38;;
77123;SDS011;66079;47.646;19.130;2023-04-16T11:35:37;2.58;;;1.20;;
77123;SDS011;66079;47.646;19.130;2023-04-16T11:38:41;2.95;;;2.00;;
77123;SDS011;66079;47.646;19.130;2023-04-16T11:41:48;2.13;;;1.57;;
77123;SDS011;66079;47.646;19.130;2023-04-16T11:44:53;3.03;;;1.90;;
77123;SDS011;66079;47.646;19.130;2023-04-16T11:47:57;3.25;;;2.00;;
77123;SDS011;66079;47.646;19.130;2023-04-16T11:51:00;2.55;;;1.58;;
77123;SDS011;66079;47.646;19.130;2023-04-16T11:54:03;3.25;;;1.52;;
77123;SDS011;66079;47.646;19.130;2023-04-16T11:57:05;2.30;;;1.50;;
77123;SDS011;66079;47.646;19.130;2023-04-16T12:00:08;1.57;;;1.03;;
77123;SDS011;66079;47.646;19.130;2023-04-16T12:03:17;1.92;;;1.10;;
77123;SDS011;66079;47.646;19.130;2023-04-16T12:06:20;2.88;;;1.30;;
77123;SDS011;66079;47.646;19.130;2023-04-16T12:09:25;2.65;;;1.20;;
77123;SDS011;66079;47.646;19.130;2023-04-16T12:12:31;1.70;;;1.30;;
77123;SDS011;66079;47.646;19.130;2023-04-16T12:15:49;2.23;;;1.20;;
77123;SDS011;66079;47.646;19.130;2023-04-16T12:18:59;1.70;;;1.30;;
77123;SDS011;66079;47.646;19.130;2023-04-16T12:22:04;1.58;;;1.00;;
77123;SDS011;66079;47.646;19.130;2023-04-16T12:25:11;1.92;;;1.10;;
77123;SDS011;66079;47.646;19.130;2023-04-16T12:28:14;3.50;;;1.30;;
77123;SDS011;66079;47.646;19.130;2023-04-16T12:31:17;1.40;;;1.20;;
77123;SDS011;66079;47.646;19.130;2023-04-16T12:34:48;1.20;;;1.08;;
77123;SDS011;66079;47.646;19.130;2023-04-16T12:37:52;3.65;;;1.15;;
77123;SDS011;66079;47.646;19.130;2023-04-16T12:40:54;1.48;;;1.20;;
77123;SDS011;66079;47.646;19.130;2023-04-16T12:44:05;2.27;;;1.13;;
77123;SDS011;66079;47.646;19.130;2023-04-16T12:47:13;2.57;;;1.30;;
77123;SDS011;66079;47.646;19.130;2023-04-16T12:50:16;1.15;;;1.00;;
77123;SDS011;66079;47.646;19.130;2023-04-16T12:53:19;1.55;;;1.00;;
77123;SDS011;66079;47.646;19.130;2023-04-16T12:56:21;1.13;;;1.00;;
77123;SDS011;66079;47.646;19.130;2023-04-16T12:59:24;1.33;;;1.20;;
77123;SDS011;66079;47.646;19.130;2023-04-16T13:02:27;2.37;;;1.30;;
77123;SDS011;66079;47.646;19.130;2023-04-16T13:05:30;3.22;;;1.40;;
77123;SDS011;66079;47.646;19.130;2023-04-16T13:08:33;2.70;;;1.30;;
77123;SDS011;66079;47.646;19.130;2023-04-16T13:11:36;1.52;;;1.10;;
77123;SDS011;66079;47.646;19.130;2023-04-16T13:14:38;1.87;;;1.20;;
77123;SDS011;66079;47.646;19.130;2023-04-16T13:17:41;1.00;;;0.90;;
77123;SDS011;66079;47.646;19.130;2023-04-16T13:20:44;1.63;;;1.10;;
77123;SDS011;66079;47.646;19.130;2023-04-16T13:23:46;1.70;;;1.10;;
77123;SDS011;66079;47.646;19.130;2023-04-16T13:26:49;1.90;;;1.27;;
77123;SDS011;66079;47.646;19.130;2023-04-16T13:29:53;2.27;;;1.00;;
77123;SDS011;66079;47.646;19.130;2023-04-16T13:32:55;2.43;;;1.07;;
77123;SDS011;66079;47.646;19.130;2023-04-16T13:35:58;1.48;;;1.00;;
77123;SDS011;66079;47.646;19.130;2023-04-16T13:39:01;1.38;;;1.27;;
77123;SDS011;66079;47.646;19.130;2023-04-16T13:42:06;1.55;;;1.00;;
77123;SDS011;66079;47.646;19.130;2023-04-16T13:45:09;1.40;;;0.70;;
77123;SDS011;66079;47.646;19.130;2023-04-16T13:48:12;2.37;;;0.70;;
77123;SDS011;66079;47.646;19.130;2023-04-16T13:51:15;1.33;;;0.70;;
77123;SDS011;66079;47.646;19.130;2023-04-16T13:54:18;0.98;;;0.60;;
77123;SDS011;66079;47.646;19.130;2023-04-16T13:57:21;0.93;;;0.50;;
77123;SDS011;66079;47.646;19.130;2023-04-16T14:00:25;1.40;;;0.60;;
77123;SDS011;66079;47.646;19.130;2023-04-16T14:03:29;0.83;;;0.60;;
77123;SDS011;66079;47.646;19.130;2023-04-16T14:06:31;0.90;;;0.52;;
77123;SDS011;66079;47.646;19.130;2023-04-16T14:09:35;1.25;;;0.50;;
77123;SDS011;66079;47.646;19.130;2023-04-16T14:12:38;1.58;;;0.60;;
77123;SDS011;66079;47.646;19.130;2023-04-16T14:15:41;0.97;;;0.60;;
77123;SDS011;66079;47.646;19.130;2023-04-16T14:18:44;1.83;;;0.70;;
77123;SDS011;66079;47.646;19.130;2023-04-16T14:21:47;0.70;;;0.50;;
77123;SDS011;66079;47.646;19.130;2023-04-16T14:24:50;1.23;;;0.50;;
77123;SDS011;66079;47.646;19.130;2023-04-16T14:27:52;0.68;;;0.50;;
77123;SDS011;66079;47.646;19.130;2023-04-16T14:30:55;1.07;;;0.67;;
77123;SDS011;66079;47.646;19.130;2023-04-16T14:33:58;2.20;;;0.60;;
77123;SDS011;66079;47.646;19.130;2023-04-16T14:37:00;1.15;;;0.77;;
77123;SDS011;66079;47.646;19.130;2023-04-16T14:40:04;0.70;;;0.70;;
77123;SDS011;66079;47.646;19.130;2023-04-16T14:43:10;1.35;;;0.82;;
77123;SDS011;66079;47.646;19.130;2023-04-16T14:46:13;1.30;;;1.03;;
77123;SDS011;66079;47.646;19.130;2023-04-16T14:49:19;1.10;;;0.87;;
77123;SDS011;66079;47.646;19.130;2023-04-16T14:52:22;0.95;;;0.70;;
77123;SDS011;66079;47.646;19.130;2023-04-16T14:55:25;2.85;;;0.80;;
77123;SDS011;66079;47.646;19.130;2023-04-16T14:58:28;1.50;;;0.80;;
77123;SDS011;66079;47.646;19.130;2023-04-16T15:01:31;5.17;;;1.00;;
77123;SDS011;66079;47.646;19.130;2023-04-16T15:04:35;1.13;;;0.80;;
77123;SDS011;66079;47.646;19.130;2023-04-16T15:07:37;1.95;;;1.10;;
77123;SDS011;66079;47.646;19.130;2023-04-16T15:10:40;1.10;;;0.90;;
77123;SDS011;66079;47.646;19.130;2023-04-16T15:13:44;1.13;;;0.90;;
77123;SDS011;66079;47.646;19.130;2023-04-16T15:16:49;1.30;;;0.90;;
77123;SDS011;66079;47.646;19.130;2023-04-16T15:19:52;1.40;;;0.97;;
77123;SDS011;66079;47.646;19.130;2023-04-16T15:22:55;1.08;;;0.90;;
77123;SDS011;66079;47.646;19.130;2023-04-16T15:25:58;2.33;;;1.00;;
77123;SDS011;66079;47.646;19.130;2023-04-16T15:29:00;1.58;;;0.90;;
77123;SDS011;66079;47.646;19.130;2023-04-16T15:32:03;1.70;;;1.10;;
77123;SDS011;66079;47.646;19.130;2023-04-16T15:35:05;2.30;;;1.00;;
77123;SDS011;66079;47.646;19.130;2023-04-16T15:38:11;2.35;;;1.40;;
77123;SDS011;66079;47.646;19.130;2023-04-16T15:41:14;3.25;;;1.45;;
77123;SDS011;66079;47.646;19.130;2023-04-16T15:44:17;2.65;;;1.35;;
77123;SDS011;66079;47.646;19.130;2023-04-16T15:47:19;2.47;;;1.40;;
77123;SDS011;66079;47.646;19.130;2023-04-16T15:50:22;1.40;;;0.70;;
77123;SDS011;66079;47.646;19.130;2023-04-16T15:53:26;1.75;;;0.93;;
77123;SDS011;66079;47.646;19.130;2023-04-16T15:56:29;1.05;;;0.90;;
77123;SDS011;66079;47.646;19.130;2023-04-16T15:59:32;1.88;;;0.70;;
77123;SDS011;66079;47.646;19.130;2023-04-16T16:02:35;1.50;;;0.90;;
77123;SDS011;66079;47.646;19.130;2023-04-16T16:05:39;3.23;;;1.20;;
77123;SDS011;66079;47.646;19.130;2023-04-16T16:08:42;2.65;;;1.00;;
77123;SDS011;66079;47.646;19.130;2023-04-16T16:11:45;2.67;;;1.08;;
77123;SDS011;66079;47.646;19.130;2023-04-16T16:14:48;5.07;;;2.10;;
77123;SDS011;66079;47.646;19.130;2023-04-16T16:17:51;2.60;;;1.20;;
77123;SDS011;66079;47.646;19.130;2023-04-16T16:20:55;1.97;;;1.17;;
77123;SDS011;66079;47.646;19.130;2023-04-16T16:23:58;1.70;;;1.25;;
77123;SDS011;66079;47.646;19.130;2023-04-16T16:27:01;2.70;;;1.60;;
77123;SDS011;66079;47.646;19.130;2023-04-16T16:30:04;1.85;;;1.30;;
77123;SDS011;66079;47.646;19.130;2023-04-16T16:33:08;1.40;;;1.10;;
77123;SDS011;66079;47.646;19.130;2023-04-16T16:36:11;1.60;;;1.20;;
77123;SDS011;66079;47.646;19.130;2023-04-16T16:39:14;1.42;;;0.88;;
77123;SDS011;66079;47.646;19.130;2023-04-16T16:42:17;2.05;;;1.25;;
77123;SDS011;66079;47.646;19.130;2023-04-16T16:45:20;2.47;;;1.55;;
77123;SDS011;66079;47.646;19.130;2023-04-16T16:48:23;1.90;;;1.70;;
77123;SDS011;66079;47.646;19.130;2023-04-16T16:51:26;3.37;;;1.40;;
77123;SDS011;66079;47.646;19.130;2023-04-16T16:54:29;3.95;;;2.30;;
77123;SDS011;66079;47.646;19.130;2023-04-16T16:57:33;5.20;;;2.50;;
77123;SDS011;66079;47.646;19.130;2023-04-16T17:00:36;8.00;;;3.25;;
77123;SDS011;66079;47.646;19.130;2023-04-16T17:03:39;20.83;;;7.13;;
77123;SDS011;66079;47.646;19.130;2023-04-16T17:06:42;34.57;;;11.70;;
77123;SDS011;66079;47.646;19.130;2023-04-16T17:09:45;36.05;;;12.27;;
77123;SDS011;66079;47.646;19.130;2023-04-16T17:12:48;14.65;;;5.82;;
77123;SDS011;66079;47.646;19.130;2023-04-16T17:15:52;5.70;;;2.63;;
77123;SDS011;66079;47.646;19.130;2023-04-16T17:18:55;3.63;;;1.90;;
77123;SDS011;66079;47.646;19.130;2023-04-16T17:21:58;3.77;;;1.93;;
77123;SDS011;66079;47.646;19.130;2023-04-16T17:25:01;6.38;;;2.28;;
77123;SDS011;66079;47.646;19.130;2023-04-16T17:28:05;4.07;;;2.28;;
77123;SDS011;66079;47.646;19.130;2023-04-16T17:31:08;3.63;;;2.20;;
77123;SDS011;66079;47.646;19.130;2023-04-16T17:34:13;7.50;;;2.30;;
77123;SDS011;66079;47.646;19.130;2023-04-16T17:37:15;4.27;;;1.90;;
77123;SDS011;66079;47.646;19.130;2023-04-16T17:40:18;1.83;;;1.30;;
77123;SDS011;66079;47.646;19.130;2023-04-16T17:43:21;2.35;;;1.30;;
77123;SDS011;66079;47.646;19.130;2023-04-16T17:46:24;0.98;;;0.80;;
77123;SDS011;66079;47.646;19.130;2023-04-16T17:49:27;2.60;;;1.17;;
77123;SDS011;66079;47.646;19.130;2023-04-16T17:52:30;3.77;;;1.10;;
77123;SDS011;66079;47.646;19.130;2023-04-16T17:55:32;2.13;;;1.20;;
77123;SDS011;66079;47.646;19.130;2023-04-16T17:58:36;3.08;;;1.50;;
77123;SDS011;66079;47.646;19.130;2023-04-16T18:01:39;2.40;;;1.50;;
77123;SDS011;66079;47.646;19.130;2023-04-16T18:04:42;9.23;;;4.50;;